New Hartford, New York
Current Conditions -  °F | °C
As of 8:53 AM on Tuesday 27 Jan 2015 (Local Time) from KRME Reporting Station
Clear Clear  
Wind Chill: -6°   Ceiling: Unl
Heat Index:   Visibility: 10mi
Dew Point: -3°   Wind: 8mph
Humidity: 64%   Direction: 350°N
Pressure: 29.92"   Gusts: NA
Location:  43.07°N, 75.29°W
Report Text: KRME 271353Z 35007KT 10SM CLR M14/M19 A2992 RMK AO2 SLP141 T11391194
Loading
Personal Weather Stations






























Interactive Weather Map New forecast layout! Learn more

10-Day Weather Forecast

Advertisements
Track Severe Weather on mobile